createdAt,value
2022-12-08T00:02:33.655Z,5.63
2022-12-08T00:05:39.144Z,4.63
2022-12-08T00:08:44.742Z,5.55
2022-12-08T00:11:31.657Z,5.53
2022-12-08T00:14:18.990Z,5.10
2022-12-08T00:17:07.729Z,4.85
2022-12-08T00:19:54.710Z,4.90
2022-12-08T00:22:41.628Z,4.72
2022-12-08T00:25:28.569Z,5.63
2022-12-08T00:28:15.509Z,4.60
2022-12-08T00:31:08.760Z,4.38
2022-12-08T00:33:55.749Z,4.18
2022-12-08T00:36:42.894Z,5.30
2022-12-08T00:39:29.900Z,4.20
2022-12-08T00:42:17.212Z,4.40
2022-12-08T00:45:04.644Z,4.75
2022-12-08T00:47:51.573Z,5.20
2022-12-08T00:50:38.485Z,5.70
2022-12-08T00:53:25.504Z,5.00
2022-12-08T00:56:12.383Z,5.18
2022-12-08T00:58:59.585Z,4.57
2022-12-08T01:01:47.495Z,4.50
2022-12-08T01:04:34.409Z,4.32
2022-12-08T01:07:21.336Z,5.75
2022-12-08T01:10:08.897Z,4.93
2022-12-08T01:12:55.783Z,4.45
2022-12-08T01:15:42.727Z,5.05
2022-12-08T01:18:29.748Z,4.78
2022-12-08T01:21:17.392Z,4.30
2022-12-08T01:24:04.960Z,5.10
2022-12-08T01:26:51.932Z,5.32
2022-12-08T01:29:38.896Z,4.95
2022-12-08T01:32:25.888Z,5.50
2022-12-08T01:35:13.704Z,5.28
2022-12-08T01:38:00.596Z,4.90
2022-12-08T01:40:47.548Z,5.07
2022-12-08T01:43:54.347Z,5.43
2022-12-08T01:46:43.677Z,5.07
2022-12-08T01:49:34.724Z,4.50
2022-12-08T01:52:35.616Z,5.03
2022-12-08T01:55:53.858Z,5.15
2022-12-08T01:58:47.930Z,4.97
2022-12-08T02:01:34.993Z,5.40
2022-12-08T02:04:22.008Z,4.95
2022-12-08T02:07:12.584Z,6.15
2022-12-08T02:10:00.117Z,5.28
2022-12-08T02:12:48.877Z,5.40
2022-12-08T02:16:00.363Z,5.72
2022-12-08T02:19:34.305Z,5.45
2022-12-08T02:22:32.831Z,5.53
2022-12-08T02:25:35.631Z,5.32
2022-12-08T02:29:04.167Z,5.38
2022-12-08T02:32:44.823Z,5.60
2022-12-08T02:35:46.653Z,5.68
2022-12-08T02:39:03.676Z,5.25
2022-12-08T02:42:12.371Z,5.07
2022-12-08T02:45:51.974Z,5.13
2022-12-08T02:48:39.992Z,5.53
2022-12-08T02:51:26.951Z,5.93
2022-12-08T02:54:15.129Z,5.78
2022-12-08T02:57:32.029Z,5.85
2022-12-08T03:00:21.606Z,5.97
2022-12-08T03:03:35.024Z,5.43
2022-12-08T03:06:57.591Z,6.45
2022-12-08T03:09:56.458Z,5.50
2022-12-08T03:12:49.608Z,8.68
2022-12-08T03:15:38.909Z,5.53
2022-12-08T03:18:31.696Z,5.07
2022-12-08T03:21:20.631Z,6.28
2022-12-08T03:24:10.445Z,6.07
2022-12-08T03:27:03.777Z,5.20
2022-12-08T03:29:53.422Z,5.57
2022-12-08T03:32:47.948Z,5.65
2022-12-08T03:35:39.292Z,5.50
2022-12-08T03:38:26.297Z,6.05
2022-12-08T03:41:19.118Z,5.50
2022-12-08T03:44:06.217Z,5.40
2022-12-08T03:46:53.153Z,5.57
2022-12-08T03:49:40.853Z,6.65
2022-12-08T03:52:28.000Z,5.43
2022-12-08T03:55:15.727Z,5.88
2022-12-08T03:58:02.655Z,5.47
2022-12-08T04:00:49.857Z,5.80
2022-12-08T04:03:36.958Z,5.78
2022-12-08T04:06:24.351Z,5.03
2022-12-08T04:09:11.335Z,5.53
2022-12-08T04:11:58.257Z,4.90
2022-12-08T04:14:45.175Z,4.65
2022-12-08T04:17:32.141Z,4.60
2022-12-08T04:20:19.049Z,4.97
2022-12-08T04:23:05.968Z,4.90
2022-12-08T04:25:54.538Z,5.30
2022-12-08T04:28:41.510Z,4.60
2022-12-08T04:31:28.444Z,4.53
2022-12-08T04:34:15.524Z,5.53
2022-12-08T04:37:02.446Z,5.57
2022-12-08T04:39:49.367Z,4.70
2022-12-08T04:42:36.431Z,5.72
2022-12-08T04:45:23.355Z,5.40
2022-12-08T04:48:13.151Z,4.97
2022-12-08T04:51:00.180Z,4.80
2022-12-08T04:53:47.383Z,5.15
2022-12-08T04:56:34.476Z,5.38
2022-12-08T04:59:21.360Z,4.80
2022-12-08T05:02:08.685Z,5.55
2022-12-08T05:04:55.697Z,5.28
2022-12-08T05:07:42.670Z,5.80
2022-12-08T05:10:29.609Z,5.00
2022-12-08T05:13:16.646Z,5.07
2022-12-08T05:16:09.956Z,4.95
2022-12-08T05:18:56.888Z,5.28
2022-12-08T05:21:44.401Z,5.00
2022-12-08T05:24:31.351Z,5.53
2022-12-08T05:27:18.295Z,6.35
2022-12-08T05:30:06.537Z,5.25
2022-12-08T05:32:53.619Z,5.43
2022-12-08T05:35:40.616Z,6.07
2022-12-08T05:38:27.552Z,5.38
2022-12-08T05:41:20.511Z,4.90
2022-12-08T05:46:54.356Z,5.43
2022-12-08T05:49:41.249Z,6.00
2022-12-08T05:52:28.357Z,4.57
2022-12-08T05:55:15.331Z,4.05
2022-12-08T05:58:07.658Z,4.28
2022-12-08T06:00:54.980Z,4.55
2022-12-08T06:03:41.944Z,4.53
2022-12-08T06:06:29.823Z,5.40
2022-12-08T06:09:17.035Z,4.55
2022-12-08T06:12:04.155Z,4.95
2022-12-08T06:14:51.197Z,4.95
2022-12-08T06:17:38.117Z,4.53
2022-12-08T06:20:25.068Z,4.13
2022-12-08T06:23:12.012Z,5.32
2022-12-08T06:26:03.656Z,4.32
2022-12-08T06:28:51.159Z,4.47
2022-12-08T06:31:38.305Z,4.95
2022-12-08T06:34:25.424Z,5.18
2022-12-08T06:37:12.367Z,5.75
2022-12-08T06:39:59.413Z,5.35
2022-12-08T06:42:47.293Z,5.30
2022-12-08T06:45:34.321Z,4.70
2022-12-08T06:48:21.283Z,4.60
2022-12-08T06:51:13.777Z,4.63
2022-12-08T06:54:01.493Z,4.82
2022-12-08T06:56:48.368Z,6.80
2022-12-08T06:59:35.328Z,4.43
2022-12-08T07:02:22.769Z,4.30
2022-12-08T07:05:09.698Z,5.70
2022-12-08T07:07:56.674Z,7.15
2022-12-08T07:10:46.572Z,6.25
2022-12-08T07:13:33.427Z,5.28
2022-12-08T07:16:20.464Z,6.53
2022-12-08T07:19:07.492Z,6.22
2022-12-08T07:21:54.421Z,5.07
2022-12-08T07:24:41.266Z,4.88
2022-12-08T07:27:28.653Z,4.25
2022-12-08T07:30:15.622Z,4.82
2022-12-08T07:33:04.798Z,4.70
2022-12-08T07:36:00.041Z,4.53
2022-12-08T07:38:47.632Z,4.57
2022-12-08T07:41:34.555Z,4.43
2022-12-08T07:44:21.441Z,4.22
2022-12-08T07:47:08.335Z,4.30
2022-12-08T07:49:55.242Z,4.43
2022-12-08T07:52:42.066Z,5.82
2022-12-08T07:55:29.023Z,4.95
2022-12-08T07:58:15.838Z,5.03
2022-12-08T08:01:03.324Z,4.93
2022-12-08T08:03:50.345Z,5.25
2022-12-08T08:06:37.987Z,5.90
2022-12-08T08:09:04.651Z,5.72
2022-12-08T08:11:31.209Z,5.40
2022-12-08T08:13:58.233Z,5.60
2022-12-08T08:16:24.937Z,5.03
2022-12-08T08:18:51.774Z,5.95
2022-12-08T08:21:44.418Z,5.70
2022-12-08T08:24:06.265Z,5.25
2022-12-08T08:26:32.861Z,5.88
2022-12-08T08:28:59.440Z,5.38
2022-12-08T08:31:27.068Z,5.40
2022-12-08T08:33:54.059Z,5.65
2022-12-08T08:36:22.090Z,5.57
2022-12-08T08:38:48.790Z,6.47
2022-12-08T08:41:15.379Z,5.38
2022-12-08T08:43:41.965Z,6.45
2022-12-08T08:46:09.111Z,5.70
2022-12-08T08:48:36.275Z,6.43
2022-12-08T08:51:11.627Z,6.03
2022-12-08T08:53:38.408Z,6.38
2022-12-08T08:56:13.517Z,5.68
2022-12-08T08:58:40.754Z,5.82
2022-12-08T09:01:07.657Z,5.78
2022-12-08T09:03:34.588Z,4.68
2022-12-08T09:06:01.202Z,4.70
2022-12-08T09:08:27.879Z,5.72
2022-12-08T09:10:55.074Z,5.85
2022-12-08T09:13:22.383Z,5.38
2022-12-08T09:15:49.253Z,4.85
2022-12-08T09:18:15.859Z,5.68
2022-12-08T09:20:42.537Z,5.80
2022-12-08T09:23:09.094Z,5.00
2022-12-08T09:25:35.677Z,5.40
2022-12-08T09:28:02.276Z,5.13
2022-12-08T09:30:28.858Z,5.80
2022-12-08T09:32:55.484Z,5.32
2022-12-08T09:35:22.058Z,5.18
2022-12-08T09:37:48.574Z,4.80
2022-12-08T09:40:18.921Z,5.03
2022-12-08T09:43:24.593Z,5.45
2022-12-08T09:45:51.783Z,5.18
2022-12-08T09:48:23.290Z,5.32
2022-12-08T09:50:58.027Z,6.90
2022-12-08T09:53:37.116Z,5.00
2022-12-08T09:56:17.015Z,5.53
2022-12-08T09:59:32.365Z,5.72
2022-12-08T10:02:01.053Z,5.47
2022-12-08T10:04:38.553Z,5.35
2022-12-08T10:07:48.330Z,5.90
2022-12-08T10:11:04.528Z,5.85
2022-12-08T10:13:40.488Z,5.22
2022-12-08T10:16:30.387Z,4.35
2022-12-08T10:19:09.246Z,4.95
2022-12-08T10:21:35.863Z,5.38
2022-12-08T10:24:11.459Z,4.95
2022-12-08T10:26:38.249Z,5.75
2022-12-08T10:29:06.502Z,5.82
2022-12-08T10:31:33.304Z,5.50
2022-12-08T10:34:01.992Z,5.43
2022-12-08T10:36:57.405Z,5.60
2022-12-08T10:39:38.905Z,5.88
2022-12-08T10:42:20.749Z,5.88
2022-12-08T10:45:03.999Z,5.73
2022-12-08T10:47:37.011Z,6.40
2022-12-08T10:50:27.912Z,5.95
2022-12-08T10:53:28.959Z,6.30
2022-12-08T10:56:16.197Z,7.00
2022-12-08T10:58:47.881Z,5.50
2022-12-08T11:01:24.035Z,6.80
2022-12-08T11:03:52.065Z,6.80
2022-12-08T11:06:20.524Z,6.90
2022-12-08T11:09:36.381Z,7.40
2022-12-08T11:12:30.504Z,6.07
2022-12-08T11:15:03.380Z,6.38
2022-12-08T11:17:39.436Z,7.00
2022-12-08T11:20:24.205Z,7.85
2022-12-08T11:22:55.893Z,8.75
2022-12-08T11:25:27.716Z,8.73
2022-12-08T11:27:58.132Z,9.05
2022-12-08T11:30:31.851Z,8.45
2022-12-08T11:33:18.317Z,8.80
2022-12-08T11:35:50.041Z,8.18
2022-12-08T11:38:22.704Z,8.33
2022-12-08T11:40:58.556Z,8.18
2022-12-08T11:43:58.616Z,7.75
2022-12-08T11:46:32.505Z,7.93
2022-12-08T11:49:13.082Z,8.00
2022-12-08T11:52:02.722Z,8.98
2022-12-08T11:54:38.833Z,9.60
2022-12-08T11:57:10.839Z,8.80
2022-12-08T11:59:50.865Z,9.75
2022-12-08T12:02:25.380Z,8.32
2022-12-08T12:06:08.594Z,9.02
2022-12-08T12:09:22.922Z,10.13
2022-12-08T12:12:26.643Z,10.52
2022-12-08T12:15:52.632Z,12.15
2022-12-08T12:44:38.159Z,12.68
2022-12-08T12:47:11.554Z,12.48
2022-12-08T12:50:06.565Z,13.93
2022-12-08T12:52:37.661Z,14.05
2022-12-08T12:55:50.284Z,12.80
2022-12-08T12:58:53.646Z,13.05
2022-12-08T13:01:37.997Z,12.85
2022-12-08T13:04:11.089Z,12.20
2022-12-08T13:06:48.570Z,12.32
2022-12-08T13:09:21.643Z,11.35
2022-12-08T13:11:54.937Z,12.30
2022-12-08T13:14:34.507Z,13.80
2022-12-08T13:17:05.129Z,12.85
2022-12-08T13:19:33.116Z,13.18
2022-12-08T13:22:00.249Z,10.80
2022-12-08T13:24:33.907Z,12.35
2022-12-08T13:27:32.377Z,12.95
2022-12-08T13:30:36.398Z,12.73
2022-12-08T13:33:19.363Z,11.88
2022-12-08T13:35:56.476Z,11.55
2022-12-08T13:38:29.209Z,13.00
2022-12-08T13:40:57.156Z,11.75
2022-12-08T13:44:20.252Z,13.23
2022-12-08T13:58:37.786Z,15.80
2022-12-08T14:01:15.147Z,15.75
2022-12-08T14:04:31.093Z,12.75
2022-12-08T14:06:48.782Z,13.18
2022-12-08T14:09:23.971Z,13.15
2022-12-08T14:12:05.399Z,14.02
2022-12-08T14:15:02.423Z,14.48
2022-12-08T14:17:30.621Z,13.13
2022-12-08T14:20:25.679Z,14.65
2022-12-08T14:22:53.648Z,13.82
2022-12-08T14:25:21.192Z,13.82
2022-12-08T14:27:48.725Z,12.48
2022-12-08T14:30:28.684Z,14.55
2022-12-08T14:33:01.034Z,13.18
2022-12-08T14:35:38.322Z,13.93
2022-12-08T14:38:13.201Z,13.15
2022-12-08T14:40:47.214Z,14.10
2022-12-08T14:43:26.301Z,12.30
2022-12-08T14:45:56.177Z,13.15
2022-12-08T14:48:42.733Z,13.32
2022-12-08T14:51:31.610Z,12.48
2022-12-08T14:54:22.777Z,13.45
2022-12-08T14:56:53.013Z,13.15
2022-12-08T14:59:31.121Z,12.93
2022-12-08T15:02:31.374Z,14.20
2022-12-08T15:05:04.934Z,13.07
2022-12-08T15:07:47.287Z,13.38
2022-12-08T15:10:26.668Z,13.65
2022-12-08T15:13:31.618Z,13.52
2022-12-08T15:15:58.537Z,15.45
2022-12-08T15:19:02.012Z,13.60
2022-12-08T15:21:31.039Z,13.77
2022-12-08T15:23:57.634Z,14.55
2022-12-08T15:26:26.312Z,14.50
2022-12-08T15:28:53.433Z,14.02
2022-12-08T15:31:20.897Z,14.77
2022-12-08T15:33:48.236Z,17.20
2022-12-08T15:36:14.758Z,21.42
2022-12-08T15:38:42.870Z,33.22
2022-12-08T15:41:14.633Z,26.45
2022-12-08T15:43:41.942Z,26.45
2022-12-08T15:46:08.594Z,25.98
2022-12-08T15:48:37.365Z,22.63
2022-12-08T15:51:04.088Z,21.38
2022-12-08T15:53:32.124Z,21.85
2022-12-08T15:58:55.522Z,23.67
2022-12-08T16:01:23.369Z,23.33
2022-12-08T16:09:31.272Z,22.40
2022-12-08T16:12:16.840Z,19.40
2022-12-08T16:17:31.568Z,19.50
2022-12-08T16:19:59.208Z,18.02
2022-12-08T16:25:20.384Z,18.02
2022-12-08T16:28:44.798Z,16.20
2022-12-08T16:30:40.102Z,59.67
2022-12-08T16:33:06.927Z,52.25
2022-12-08T16:35:33.572Z,31.75
2022-12-08T16:38:00.242Z,27.95
2022-12-08T16:40:26.864Z,22.92
2022-12-08T16:42:53.504Z,22.08
2022-12-08T16:45:25.965Z,18.05
2022-12-08T16:50:26.766Z,17.40
2022-12-08T16:52:59.904Z,17.02
2022-12-08T16:55:27.069Z,15.40
2022-12-08T16:57:54.255Z,15.90
2022-12-08T17:00:23.736Z,14.57
2022-12-08T17:02:51.697Z,13.43
2022-12-08T17:05:20.360Z,14.80
2022-12-08T17:07:49.087Z,13.02
2022-12-08T17:10:18.814Z,13.63
2022-12-08T17:12:46.007Z,12.65
2022-12-08T17:15:19.776Z,15.05
2022-12-08T17:17:46.451Z,14.40
2022-12-08T17:20:16.011Z,16.40
2022-12-08T17:22:42.626Z,16.23
2022-12-08T17:25:09.678Z,56.88
2022-12-08T17:27:36.996Z,26.33
2022-12-08T17:30:05.174Z,22.60
2022-12-08T17:32:32.154Z,17.23
2022-12-08T17:34:58.865Z,18.58
2022-12-08T17:37:26.200Z,20.48
2022-12-08T17:39:52.848Z,19.48
2022-12-08T17:42:19.455Z,18.98
2022-12-08T17:44:46.756Z,20.90
2022-12-08T17:47:13.298Z,18.20
2022-12-08T17:49:39.847Z,19.98
2022-12-08T17:52:10.768Z,19.63
2022-12-08T17:54:37.900Z,17.15
2022-12-08T17:57:05.543Z,16.50
2022-12-08T17:59:32.903Z,16.75
2022-12-08T18:01:59.739Z,16.83
2022-12-08T18:04:27.801Z,16.40
2022-12-08T18:06:54.978Z,24.38
2022-12-08T18:09:21.799Z,22.75
2022-12-08T18:11:48.435Z,19.80
2022-12-08T18:14:16.074Z,17.55
2022-12-08T18:16:45.218Z,18.40
2022-12-08T18:19:13.186Z,24.52
2022-12-08T18:21:41.456Z,32.95
2022-12-08T18:24:14.282Z,39.63
2022-12-08T18:26:40.869Z,42.22
2022-12-08T18:29:07.444Z,39.42
2022-12-08T18:31:34.160Z,34.42
2022-12-08T18:34:00.735Z,35.05
2022-12-08T18:36:28.836Z,30.45
2022-12-08T18:38:55.710Z,24.52
2022-12-08T18:41:25.672Z,22.77
2022-12-08T18:43:54.279Z,19.50
2022-12-08T18:46:21.345Z,20.80
2022-12-08T18:48:49.645Z,19.33
2022-12-08T18:51:18.921Z,18.30
2022-12-08T18:53:46.734Z,18.65
2022-12-08T18:56:31.246Z,20.58
2022-12-08T18:59:03.356Z,18.60
2022-12-08T19:01:35.409Z,18.83
2022-12-08T19:04:27.274Z,18.10
2022-12-08T19:06:52.772Z,18.48
2022-12-08T19:09:19.935Z,20.95
2022-12-08T19:11:46.567Z,19.95
2022-12-08T19:14:13.316Z,17.75
2022-12-08T19:16:39.911Z,18.08
2022-12-08T19:19:06.504Z,18.52
2022-12-08T19:21:34.124Z,20.35
2022-12-08T19:24:01.545Z,20.00
2022-12-08T19:26:28.764Z,24.80
2022-12-08T19:28:56.207Z,21.27
2022-12-08T19:31:23.063Z,27.38
2022-12-08T19:33:49.764Z,25.88
2022-12-08T19:36:19.154Z,23.33
2022-12-08T19:39:04.506Z,18.55
2022-12-08T19:41:50.282Z,19.15
2022-12-08T19:44:48.737Z,19.45
2022-12-08T19:47:15.604Z,17.85
2022-12-08T19:49:42.294Z,18.95
2022-12-08T19:52:09.171Z,17.67
2022-12-08T19:54:36.111Z,18.25
2022-12-08T19:57:03.182Z,17.25
2022-12-08T19:59:30.338Z,17.23
2022-12-08T20:01:58.623Z,17.35
2022-12-08T20:04:26.849Z,17.30
2022-12-08T20:06:55.423Z,16.77
2022-12-08T20:09:23.504Z,17.17
2022-12-08T20:11:50.882Z,16.88
2022-12-08T20:14:21.208Z,17.45
2022-12-08T20:16:47.984Z,15.60
2022-12-08T20:19:14.613Z,16.98
2022-12-08T20:21:41.199Z,17.55
2022-12-08T20:24:08.037Z,16.70
2022-12-08T20:26:34.757Z,17.35
2022-12-08T20:29:01.384Z,17.13
2022-12-08T20:31:30.562Z,16.13
2022-12-08T20:33:57.298Z,18.63
2022-12-08T20:36:24.403Z,16.73
2022-12-08T20:38:52.872Z,18.60
2022-12-08T20:41:20.420Z,18.98
2022-12-08T20:43:47.841Z,19.63
2022-12-08T20:46:16.996Z,20.10
2022-12-08T20:48:44.598Z,19.40
2022-12-08T20:51:19.313Z,20.73
2022-12-08T20:53:46.752Z,20.10
2022-12-08T20:56:15.688Z,22.92
2022-12-08T20:58:42.906Z,26.75
2022-12-08T21:01:14.401Z,27.75
2022-12-08T21:03:41.702Z,29.37
2022-12-08T21:06:08.900Z,28.55
2022-12-08T21:08:35.993Z,31.00
2022-12-08T21:11:03.486Z,26.23
2022-12-08T21:13:30.205Z,23.25
2022-12-08T21:15:57.552Z,25.13
2022-12-08T21:18:24.555Z,25.42
2022-12-08T21:20:51.912Z,24.58
2022-12-08T21:23:19.239Z,21.55
2022-12-08T21:25:47.352Z,21.98
2022-12-08T21:28:13.968Z,25.38
2022-12-08T21:30:41.751Z,24.13
2022-12-08T21:33:08.719Z,23.77
2022-12-08T21:35:35.426Z,23.67
2022-12-08T21:38:02.208Z,23.90
2022-12-08T21:40:28.975Z,23.42
2022-12-08T21:42:55.739Z,23.15
2022-12-08T21:45:22.653Z,24.90
2022-12-08T21:47:50.695Z,23.70
2022-12-08T21:50:18.601Z,24.55
2022-12-08T21:52:47.944Z,25.65
2022-12-08T21:55:16.372Z,28.30
2022-12-08T21:57:43.240Z,23.48
2022-12-08T22:00:13.385Z,26.05
2022-12-08T22:02:40.649Z,23.67
2022-12-08T22:05:07.912Z,22.45
2022-12-08T22:07:38.423Z,23.35
2022-12-08T22:10:07.707Z,24.27
2022-12-08T22:12:35.977Z,25.60
2022-12-08T22:15:05.748Z,21.98
2022-12-08T22:17:36.439Z,22.50
2022-12-08T22:20:08.102Z,23.65
2022-12-08T22:22:35.374Z,20.77
2022-12-08T22:25:03.267Z,20.55
2022-12-08T22:27:30.110Z,23.20
2022-12-08T22:29:56.757Z,28.27
2022-12-08T22:32:23.502Z,34.67
2022-12-08T22:34:50.127Z,28.52
2022-12-08T22:37:16.856Z,24.83
2022-12-08T22:39:43.475Z,21.67
2022-12-08T22:42:10.111Z,18.08
2022-12-08T22:44:36.677Z,16.30
2022-12-08T22:47:03.511Z,17.23
2022-12-08T22:49:31.634Z,16.10
2022-12-08T22:51:58.512Z,15.02
2022-12-08T22:54:25.100Z,16.08
2022-12-08T22:56:52.345Z,14.93
2022-12-08T22:59:18.876Z,16.13
2022-12-08T23:01:45.399Z,15.30
2022-12-08T23:04:17.428Z,14.93
2022-12-08T23:06:44.829Z,15.35
2022-12-08T23:09:11.860Z,15.48
2022-12-08T23:11:38.726Z,15.90
2022-12-08T23:14:05.326Z,14.65
2022-12-08T23:16:33.559Z,16.20
2022-12-08T23:19:00.346Z,15.57
2022-12-08T23:21:27.206Z,17.52
2022-12-08T23:23:53.980Z,15.02
2022-12-08T23:26:26.915Z,16.20
2022-12-08T23:28:54.050Z,16.42
2022-12-08T23:31:21.512Z,16.88
2022-12-08T23:33:48.767Z,16.80
2022-12-08T23:36:16.673Z,17.38
2022-12-08T23:38:43.766Z,16.90
2022-12-08T23:41:11.842Z,16.48
2022-12-08T23:43:46.269Z,16.35
2022-12-08T23:46:15.122Z,15.52
2022-12-08T23:48:42.149Z,14.07
2022-12-08T23:51:09.247Z,13.60
2022-12-08T23:53:35.940Z,12.77
2022-12-08T23:56:05.743Z,14.20
2022-12-08T23:58:33.359Z,14.02
